sensor_id;sensor_type;location;lat;lon;timestamp;pressure;altitude;pressure_sealevel;temperature;humidity
58658;BME280;44428;45.630;13.786;2022-11-20T00:00:51;100534.09;;;7.39;68.93
58658;BME280;44428;45.630;13.786;2022-11-20T00:03:17;100535.19;;;7.34;69.17
58658;BME280;44428;45.630;13.786;2022-11-20T00:05:43;100540.25;;;7.38;69.40
58658;BME280;44428;45.630;13.786;2022-11-20T00:08:09;100564.69;;;7.40;69.21
58658;BME280;44428;45.630;13.786;2022-11-20T00:10:36;100553.22;;;7.41;69.11
58658;BME280;44428;45.630;13.786;2022-11-20T00:13:02;100554.34;;;7.37;69.68
58658;BME280;44428;45.630;13.786;2022-11-20T00:15:28;100567.88;;;7.30;69.82
58658;BME280;44428;45.630;13.786;2022-11-20T00:17:54;100574.13;;;7.28;70.17
58658;BME280;44428;45.630;13.786;2022-11-20T00:20:19;100585.84;;;7.22;70.63
58658;BME280;44428;45.630;13.786;2022-11-20T00:22:45;100589.44;;;7.21;71.19
58658;BME280;44428;45.630;13.786;2022-11-20T00:25:11;100600.72;;;7.23;70.91
58658;BME280;44428;45.630;13.786;2022-11-20T00:27:37;100602.91;;;7.15;72.31
58658;BME280;44428;45.630;13.786;2022-11-20T00:30:04;100613.25;;;7.18;71.97
58658;BME280;44428;45.630;13.786;2022-11-20T00:32:29;100615.28;;;7.13;72.08
58658;BME280;44428;45.630;13.786;2022-11-20T00:34:55;100625.63;;;7.16;72.41
58658;BME280;44428;45.630;13.786;2022-11-20T00:37:21;100640.91;;;7.09;72.52
58658;BME280;44428;45.630;13.786;2022-11-20T00:39:47;100639.88;;;7.12;72.79
58658;BME280;44428;45.630;13.786;2022-11-20T00:42:13;100643.28;;;7.14;72.99
58658;BME280;44428;45.630;13.786;2022-11-20T00:44:38;100655.81;;;7.09;73.46
58658;BME280;44428;45.630;13.786;2022-11-20T00:47:04;100652.94;;;6.98;73.45
58658;BME280;44428;45.630;13.786;2022-11-20T00:49:30;100665.47;;;6.93;75.31
58658;BME280;44428;45.630;13.786;2022-11-20T00:51:55;100662.13;;;6.91;76.63
58658;BME280;44428;45.630;13.786;2022-11-20T00:54:21;100662.28;;;6.87;75.68
58658;BME280;44428;45.630;13.786;2022-11-20T00:56:47;100671.06;;;6.86;77.39
58658;BME280;44428;45.630;13.786;2022-11-20T00:59:12;100669.72;;;6.79;77.57
58658;BME280;44428;45.630;13.786;2022-11-20T01:01:38;100677.00;;;6.74;78.29
58658;BME280;44428;45.630;13.786;2022-11-20T01:04:04;100682.75;;;6.65;78.95
58658;BME280;44428;45.630;13.786;2022-11-20T01:06:33;100676.00;;;6.61;79.63
58658;BME280;44428;45.630;13.786;2022-11-20T01:09:04;100678.94;;;6.55;80.08
58658;BME280;44428;45.630;13.786;2022-11-20T01:11:31;100678.16;;;6.53;80.48
58658;BME280;44428;45.630;13.786;2022-11-20T01:13:58;100679.88;;;6.54;79.97
58658;BME280;44428;45.630;13.786;2022-11-20T01:16:27;100675.56;;;6.53;81.28
58658;BME280;44428;45.630;13.786;2022-11-20T01:18:55;100677.25;;;6.54;81.96
58658;BME280;44428;45.630;13.786;2022-11-20T01:21:24;100666.16;;;6.49;81.18
58658;BME280;44428;45.630;13.786;2022-11-20T01:23:51;100673.09;;;6.50;82.57
58658;BME280;44428;45.630;13.786;2022-11-20T01:26:23;100647.84;;;6.47;80.48
58658;BME280;44428;45.630;13.786;2022-11-20T01:28:50;100662.09;;;6.59;82.01
58658;BME280;44428;45.630;13.786;2022-11-20T01:33:51;100654.81;;;6.64;80.16
58658;BME280;44428;45.630;13.786;2022-11-20T01:36:18;100672.44;;;6.62;80.72
58658;BME280;44428;45.630;13.786;2022-11-20T01:38:45;100667.84;;;6.65;81.29
58658;BME280;44428;45.630;13.786;2022-11-20T01:41:12;100670.41;;;6.67;80.21
58658;BME280;44428;45.630;13.786;2022-11-20T01:43:58;100664.81;;;6.73;79.16
58658;BME280;44428;45.630;13.786;2022-11-20T01:46:24;100652.28;;;6.78;78.50
58658;BME280;44428;45.630;13.786;2022-11-20T01:51:51;100652.63;;;6.88;77.86
58658;BME280;44428;45.630;13.786;2022-11-20T01:54:23;100655.75;;;6.95;77.36
58658;BME280;44428;45.630;13.786;2022-11-20T01:56:51;100660.41;;;6.89;77.58
58658;BME280;44428;45.630;13.786;2022-11-20T01:59:19;100660.56;;;6.86;77.78
58658;BME280;44428;45.630;13.786;2022-11-20T02:01:46;100648.22;;;6.88;77.46
58658;BME280;44428;45.630;13.786;2022-11-20T02:04:13;100642.94;;;6.88;77.36
58658;BME280;44428;45.630;13.786;2022-11-20T02:06:44;100642.94;;;6.88;78.04
58658;BME280;44428;45.630;13.786;2022-11-20T02:09:11;100651.94;;;6.84;78.45
58658;BME280;44428;45.630;13.786;2022-11-20T02:11:37;100653.63;;;6.85;77.86
58658;BME280;44428;45.630;13.786;2022-11-20T02:14:03;100643.28;;;6.82;78.23
58658;BME280;44428;45.630;13.786;2022-11-20T02:16:39;100639.16;;;6.78;79.33
58658;BME280;44428;45.630;13.786;2022-11-20T02:19:10;100645.31;;;6.77;79.36
58658;BME280;44428;45.630;13.786;2022-11-20T02:21:59;100645.16;;;6.80;78.16
58658;BME280;44428;45.630;13.786;2022-11-20T02:24:26;100638.31;;;6.78;78.64
58658;BME280;44428;45.630;13.786;2022-11-20T02:26:57;100634.66;;;6.80;77.26
58658;BME280;44428;45.630;13.786;2022-11-20T02:32:20;100629.91;;;6.71;78.86
58658;BME280;44428;45.630;13.786;2022-11-20T02:34:46;100636.44;;;6.80;78.00
58658;BME280;44428;45.630;13.786;2022-11-20T02:37:12;100646.38;;;6.75;78.10
58658;BME280;44428;45.630;13.786;2022-11-20T02:39:39;100642.78;;;6.76;78.25
58658;BME280;44428;45.630;13.786;2022-11-20T02:42:05;100636.38;;;6.81;77.04
58658;BME280;44428;45.630;13.786;2022-11-20T02:44:31;100634.81;;;6.77;77.05
58658;BME280;44428;45.630;13.786;2022-11-20T02:46:57;100645.31;;;6.77;77.16
58658;BME280;44428;45.630;13.786;2022-11-20T02:49:24;100634.81;;;6.77;76.52
58658;BME280;44428;45.630;13.786;2022-11-20T02:51:50;100660.25;;;6.77;77.08
58658;BME280;44428;45.630;13.786;2022-11-20T02:54:16;100643.63;;;6.76;76.16
58658;BME280;44428;45.630;13.786;2022-11-20T02:56:41;100649.50;;;6.81;76.31
58658;BME280;44428;45.630;13.786;2022-11-20T02:59:07;100649.06;;;6.73;76.99
58658;BME280;44428;45.630;13.786;2022-11-20T03:01:33;100649.22;;;6.70;77.29
58658;BME280;44428;45.630;13.786;2022-11-20T03:03:59;100654.66;;;6.67;77.66
58658;BME280;44428;45.630;13.786;2022-11-20T03:06:25;100654.91;;;6.78;75.77
58658;BME280;44428;45.630;13.786;2022-11-20T03:08:50;100649.31;;;6.84;74.18
58658;BME280;44428;45.630;13.786;2022-11-20T03:11:16;100649.66;;;6.78;75.77
58658;BME280;44428;45.630;13.786;2022-11-20T03:13:42;100658.28;;;6.80;75.36
58658;BME280;44428;45.630;13.786;2022-11-20T03:16:14;100644.06;;;6.84;75.46
58658;BME280;44428;45.630;13.786;2022-11-20T03:18:41;100657.19;;;6.84;74.59
58658;BME280;44428;45.630;13.786;2022-11-20T03:21:08;100660.75;;;6.83;74.44
58658;BME280;44428;45.630;13.786;2022-11-20T03:23:34;100654.66;;;6.83;74.44
58658;BME280;44428;45.630;13.786;2022-11-20T03:26:20;100657.38;;;6.81;75.32
58658;BME280;44428;45.630;13.786;2022-11-20T03:28:48;100650.41;;;6.80;74.35
58658;BME280;44428;45.630;13.786;2022-11-20T03:31:15;100668.63;;;6.83;74.58
58658;BME280;44428;45.630;13.786;2022-11-20T03:33:42;100667.38;;;6.91;73.85
58658;BME280;44428;45.630;13.786;2022-11-20T03:36:10;100653.47;;;6.88;73.46
58658;BME280;44428;45.630;13.786;2022-11-20T03:38:37;100679.03;;;7.01;73.06
58658;BME280;44428;45.630;13.786;2022-11-20T03:41:08;100653.78;;;6.98;73.96
58658;BME280;44428;45.630;13.786;2022-11-20T03:43:34;100670.81;;;7.07;72.93
58658;BME280;44428;45.630;13.786;2022-11-20T03:46:00;100682.09;;;7.09;73.08
58658;BME280;44428;45.630;13.786;2022-11-20T03:48:26;100674.81;;;7.14;72.64
58658;BME280;44428;45.630;13.786;2022-11-20T03:50:53;100678.19;;;7.16;72.63
58658;BME280;44428;45.630;13.786;2022-11-20T03:53:31;100686.16;;;7.15;73.19
58658;BME280;44428;45.630;13.786;2022-11-20T03:55:57;100681.41;;;7.21;72.45
58658;BME280;44428;45.630;13.786;2022-11-20T03:58:22;100676.91;;;7.23;72.74
58658;BME280;44428;45.630;13.786;2022-11-20T04:00:48;100683.25;;;7.19;72.41
58658;BME280;44428;45.630;13.786;2022-11-20T04:03:14;100682.06;;;7.25;72.33
58658;BME280;44428;45.630;13.786;2022-11-20T04:05:39;100683.09;;;7.22;73.07
58658;BME280;44428;45.630;13.786;2022-11-20T04:08:05;100683.00;;;7.24;72.33
58658;BME280;44428;45.630;13.786;2022-11-20T04:10:31;100679.38;;;7.26;72.33
58658;BME280;44428;45.630;13.786;2022-11-20T04:12:57;100687.81;;;7.31;72.08
58658;BME280;44428;45.630;13.786;2022-11-20T04:15:22;100679.59;;;7.38;71.32
58658;BME280;44428;45.630;13.786;2022-11-20T04:17:48;100674.91;;;7.43;70.91
58658;BME280;44428;45.630;13.786;2022-11-20T04:20:14;100687.13;;;7.44;71.13
58658;BME280;44428;45.630;13.786;2022-11-20T04:22:40;100669.47;;;7.46;71.08
58658;BME280;44428;45.630;13.786;2022-11-20T04:25:05;100676.25;;;7.50;70.54
58658;BME280;44428;45.630;13.786;2022-11-20T04:27:31;100670.97;;;7.50;70.51
58658;BME280;44428;45.630;13.786;2022-11-20T04:29:57;100679.81;;;7.49;70.83
58658;BME280;44428;45.630;13.786;2022-11-20T04:32:23;100680.78;;;7.62;69.79
58658;BME280;44428;45.630;13.786;2022-11-20T04:34:48;100681.91;;;7.58;70.10
58658;BME280;44428;45.630;13.786;2022-11-20T04:37:14;100679.28;;;7.58;70.16
58658;BME280;44428;45.630;13.786;2022-11-20T04:39:40;100662.00;;;7.54;69.80
58658;BME280;44428;45.630;13.786;2022-11-20T04:42:05;100673.66;;;7.64;70.03
58658;BME280;44428;45.630;13.786;2022-11-20T04:44:50;100689.25;;;7.67;69.90
58658;BME280;44428;45.630;13.786;2022-11-20T04:47:15;100680.44;;;7.68;69.69
58658;BME280;44428;45.630;13.786;2022-11-20T04:49:41;100689.25;;;7.67;69.75
58658;BME280;44428;45.630;13.786;2022-11-20T04:52:07;100683.81;;;7.70;69.73
58658;BME280;44428;45.630;13.786;2022-11-20T04:54:32;100700.09;;;7.77;69.42
58658;BME280;44428;45.630;13.786;2022-11-20T04:56:58;100684.97;;;7.80;68.83
58658;BME280;44428;45.630;13.786;2022-11-20T04:59:24;100702.28;;;7.85;68.49
58658;BME280;44428;45.630;13.786;2022-11-20T05:01:49;100706.78;;;7.83;68.54
58658;BME280;44428;45.630;13.786;2022-11-20T05:04:15;100717.47;;;7.79;68.78
58658;BME280;44428;45.630;13.786;2022-11-20T05:06:41;100706.19;;;7.77;69.00
58658;BME280;44428;45.630;13.786;2022-11-20T05:09:06;100701.09;;;7.74;69.36
58658;BME280;44428;45.630;13.786;2022-11-20T05:11:32;100697.75;;;7.72;69.11
58658;BME280;44428;45.630;13.786;2022-11-20T05:13:58;100710.34;;;7.82;68.89
58658;BME280;44428;45.630;13.786;2022-11-20T05:16:24;100713.56;;;7.87;68.66
58658;BME280;44428;45.630;13.786;2022-11-20T05:18:51;100730.28;;;7.86;68.58
58658;BME280;44428;45.630;13.786;2022-11-20T05:21:18;100729.91;;;7.92;68.33
58658;BME280;44428;45.630;13.786;2022-11-20T05:23:44;100720.50;;;7.88;69.05
58658;BME280;44428;45.630;13.786;2022-11-20T05:26:21;100726.53;;;7.90;68.59
58658;BME280;44428;45.630;13.786;2022-11-20T05:28:47;100733.66;;;7.88;69.03
58658;BME280;44428;45.630;13.786;2022-11-20T05:31:22;100727.56;;;7.87;68.66
58658;BME280;44428;45.630;13.786;2022-11-20T05:33:48;100726.19;;;7.96;68.18
58658;BME280;44428;45.630;13.786;2022-11-20T05:36:15;100717.34;;;7.97;67.87
58658;BME280;44428;45.630;13.786;2022-11-20T05:38:41;100713.75;;;7.98;67.76
58658;BME280;44428;45.630;13.786;2022-11-20T05:41:12;100738.22;;;8.00;67.94
58658;BME280;44428;45.630;13.786;2022-11-20T05:43:40;100736.16;;;8.05;67.60
58658;BME280;44428;45.630;13.786;2022-11-20T05:46:07;100745.25;;;8.14;66.94
58658;BME280;44428;45.630;13.786;2022-11-20T05:48:34;100757.41;;;8.16;67.01
58658;BME280;44428;45.630;13.786;2022-11-20T05:51:01;100772.09;;;8.20;66.90
58658;BME280;44428;45.630;13.786;2022-11-20T05:53:28;100745.00;;;8.18;66.93
58658;BME280;44428;45.630;13.786;2022-11-20T05:58:23;100748.47;;;8.19;67.03
58658;BME280;44428;45.630;13.786;2022-11-20T06:00:49;100746.88;;;8.16;66.76
58658;BME280;44428;45.630;13.786;2022-11-20T06:03:15;100744.06;;;8.19;66.67
58658;BME280;44428;45.630;13.786;2022-11-20T06:05:40;100761.56;;;8.20;67.02
58658;BME280;44428;45.630;13.786;2022-11-20T06:08:06;100753.09;;;8.15;66.64
58658;BME280;44428;45.630;13.786;2022-11-20T06:10:32;100744.06;;;8.19;66.62
58658;BME280;44428;45.630;13.786;2022-11-20T06:12:58;100729.66;;;8.11;67.22
58658;BME280;44428;45.630;13.786;2022-11-20T06:15:24;100754.03;;;8.14;67.07
58658;BME280;44428;45.630;13.786;2022-11-20T06:17:53;100737.28;;;8.15;67.00
58658;BME280;44428;45.630;13.786;2022-11-20T06:20:20;100738.50;;;8.10;67.50
58658;BME280;44428;45.630;13.786;2022-11-20T06:22:46;100736.16;;;8.05;67.46
58658;BME280;44428;45.630;13.786;2022-11-20T06:25:11;100734.44;;;8.04;67.73
58658;BME280;44428;45.630;13.786;2022-11-20T06:27:37;100729.00;;;8.07;67.52
58658;BME280;44428;45.630;13.786;2022-11-20T06:30:03;100759.06;;;8.03;67.70
58658;BME280;44428;45.630;13.786;2022-11-20T06:32:29;100741.44;;;8.05;68.03
58658;BME280;44428;45.630;13.786;2022-11-20T06:34:55;100751.94;;;8.05;67.86
58658;BME280;44428;45.630;13.786;2022-11-20T06:37:21;100759.06;;;8.03;67.88
58658;BME280;44428;45.630;13.786;2022-11-20T06:39:46;100770.56;;;8.02;68.06
58658;BME280;44428;45.630;13.786;2022-11-20T06:42:12;100768.75;;;8.02;68.27
58658;BME280;44428;45.630;13.786;2022-11-20T06:44:38;100774.88;;;8.03;67.97
58658;BME280;44428;45.630;13.786;2022-11-20T06:47:03;100764.53;;;8.00;67.92
58658;BME280;44428;45.630;13.786;2022-11-20T06:49:29;100778.81;;;7.96;68.44
58658;BME280;44428;45.630;13.786;2022-11-20T06:51:55;100771.66;;;7.98;68.36
58658;BME280;44428;45.630;13.786;2022-11-20T06:54:20;100789.16;;;7.99;68.28
58658;BME280;44428;45.630;13.786;2022-11-20T06:56:47;100782.00;;;8.01;68.58
58658;BME280;44428;45.630;13.786;2022-11-20T06:59:13;100801.19;;;8.03;68.35
58658;BME280;44428;45.630;13.786;2022-11-20T07:01:39;100800.41;;;8.01;67.98
58658;BME280;44428;45.630;13.786;2022-11-20T07:04:05;100825.44;;;8.08;68.00
58658;BME280;44428;45.630;13.786;2022-11-20T07:06:30;100811.34;;;8.09;67.87
58658;BME280;44428;45.630;13.786;2022-11-20T07:08:56;100820.00;;;8.11;67.79
58658;BME280;44428;45.630;13.786;2022-11-20T07:11:22;100825.09;;;8.14;67.32
58658;BME280;44428;45.630;13.786;2022-11-20T07:13:48;100824.91;;;8.17;67.03
58658;BME280;44428;45.630;13.786;2022-11-20T07:16:15;100838.81;;;8.19;67.10
58658;BME280;44428;45.630;13.786;2022-11-20T07:18:41;100827.13;;;8.09;67.46
58658;BME280;44428;45.630;13.786;2022-11-20T07:21:08;100828.66;;;8.13;67.49
58658;BME280;44428;45.630;13.786;2022-11-20T07:23:34;100840.34;;;8.23;66.90
58658;BME280;44428;45.630;13.786;2022-11-20T07:26:08;100842.03;;;8.24;67.03
58658;BME280;44428;45.630;13.786;2022-11-20T07:28:35;100847.31;;;8.24;67.47
58658;BME280;44428;45.630;13.786;2022-11-20T07:31:01;100848.81;;;8.29;66.65
58658;BME280;44428;45.630;13.786;2022-11-20T07:33:27;100852.03;;;8.34;66.68
58658;BME280;44428;45.630;13.786;2022-11-20T07:35:53;100861.78;;;8.32;66.97
58658;BME280;44428;45.630;13.786;2022-11-20T07:38:19;100859.09;;;8.33;67.15
58658;BME280;44428;45.630;13.786;2022-11-20T07:40:44;100860.69;;;8.36;66.21
58658;BME280;44428;45.630;13.786;2022-11-20T07:43:10;100853.53;;;8.38;66.50
58658;BME280;44428;45.630;13.786;2022-11-20T07:45:36;100869.50;;;8.35;66.70
58658;BME280;44428;45.630;13.786;2022-11-20T07:48:01;100872.91;;;8.37;66.84
58658;BME280;44428;45.630;13.786;2022-11-20T07:50:27;100887.03;;;8.36;66.65
58658;BME280;44428;45.630;13.786;2022-11-20T07:53:00;100883.63;;;8.34;66.64
58658;BME280;44428;45.630;13.786;2022-11-20T07:55:26;100899.09;;;8.40;66.28
58658;BME280;44428;45.630;13.786;2022-11-20T07:57:55;100921.84;;;8.41;66.53
58658;BME280;44428;45.630;13.786;2022-11-20T08:00:22;100913.59;;;8.47;65.94
58658;BME280;44428;45.630;13.786;2022-11-20T08:02:48;100916.22;;;8.47;66.22
58658;BME280;44428;45.630;13.786;2022-11-20T08:05:14;100920.47;;;8.34;66.28
58658;BME280;44428;45.630;13.786;2022-11-20T08:07:41;100917.06;;;8.32;66.00
58658;BME280;44428;45.630;13.786;2022-11-20T08:10:10;100920.31;;;8.37;65.60
58658;BME280;44428;45.630;13.786;2022-11-20T08:12:42;100920.66;;;8.31;66.41
58658;BME280;44428;45.630;13.786;2022-11-20T08:15:27;100936.44;;;8.31;66.76
58658;BME280;44428;45.630;13.786;2022-11-20T08:20:27;100933.22;;;8.25;66.89
58658;BME280;44428;45.630;13.786;2022-11-20T08:22:57;100955.81;;;8.30;66.29
58658;BME280;44428;45.630;13.786;2022-11-20T08:25:23;100955.34;;;8.39;65.78
58658;BME280;44428;45.630;13.786;2022-11-20T08:27:49;100964.28;;;8.35;65.55
58658;BME280;44428;45.630;13.786;2022-11-20T08:30:15;100959.91;;;8.35;65.76
58658;BME280;44428;45.630;13.786;2022-11-20T08:32:40;100957.16;;;8.37;66.31
58658;BME280;44428;45.630;13.786;2022-11-20T08:35:06;100967.38;;;8.43;65.76
58658;BME280;44428;45.630;13.786;2022-11-20T08:37:32;100963.97;;;8.41;65.20
58658;BME280;44428;45.630;13.786;2022-11-20T08:39:58;100973.06;;;8.51;65.30
58658;BME280;44428;45.630;13.786;2022-11-20T08:42:23;100969.66;;;8.49;65.11
58658;BME280;44428;45.630;13.786;2022-11-20T08:44:49;100980.63;;;8.57;64.89
58658;BME280;44428;45.630;13.786;2022-11-20T08:47:15;100966.66;;;8.55;65.58
58658;BME280;44428;45.630;13.786;2022-11-20T08:49:40;100963.09;;;8.56;65.65
58658;BME280;44428;45.630;13.786;2022-11-20T08:52:06;100964.28;;;8.66;65.53
58658;BME280;44428;45.630;13.786;2022-11-20T08:54:32;100970.88;;;8.74;64.27
58658;BME280;44428;45.630;13.786;2022-11-20T08:56:57;100970.31;;;8.68;65.03
58658;BME280;44428;45.630;13.786;2022-11-20T08:59:23;100965.41;;;8.77;64.44
58658;BME280;44428;45.630;13.786;2022-11-20T09:01:49;100965.41;;;8.77;64.85
58658;BME280;44428;45.630;13.786;2022-11-20T09:04:15;100972.78;;;8.71;66.39
58658;BME280;44428;45.630;13.786;2022-11-20T09:06:41;100967.69;;;8.68;64.91
58658;BME280;44428;45.630;13.786;2022-11-20T09:09:07;100974.81;;;8.66;65.57
58658;BME280;44428;45.630;13.786;2022-11-20T09:11:34;100987.03;;;8.67;65.22
58658;BME280;44428;45.630;13.786;2022-11-20T09:14:00;100974.63;;;8.69;64.98
58658;BME280;44428;45.630;13.786;2022-11-20T09:16:28;100979.72;;;8.73;65.11
58658;BME280;44428;45.630;13.786;2022-11-20T09:18:53;100982.75;;;8.81;66.60
58658;BME280;44428;45.630;13.786;2022-11-20T09:21:19;100986.91;;;8.85;66.52
58658;BME280;44428;45.630;13.786;2022-11-20T09:23:45;100982.03;;;8.93;65.88
58658;BME280;44428;45.630;13.786;2022-11-20T09:26:12;100986.59;;;9.05;64.07
58658;BME280;44428;45.630;13.786;2022-11-20T09:28:38;100983.19;;;9.03;64.32
58658;BME280;44428;45.630;13.786;2022-11-20T09:31:09;100996.09;;;9.08;64.20
58658;BME280;44428;45.630;13.786;2022-11-20T09:33:39;100987.53;;;9.18;64.66
58658;BME280;44428;45.630;13.786;2022-11-20T09:36:05;100996.03;;;9.24;63.66
58658;BME280;44428;45.630;13.786;2022-11-20T09:38:31;100997.34;;;9.31;63.79
58658;BME280;44428;45.630;13.786;2022-11-20T09:41:04;100986.63;;;9.34;63.28
58658;BME280;44428;45.630;13.786;2022-11-20T09:46:38;100994.16;;;9.54;63.63
58658;BME280;44428;45.630;13.786;2022-11-20T09:49:25;100987.75;;;9.73;62.19
58658;BME280;44428;45.630;13.786;2022-11-20T09:55:01;100992.97;;;10.01;62.28
58658;BME280;44428;45.630;13.786;2022-11-20T09:57:36;100989.59;;;9.99;61.73
58658;BME280;44428;45.630;13.786;2022-11-20T10:00:05;100992.41;;;10.11;61.54
58658;BME280;44428;45.630;13.786;2022-11-20T10:03:01;100988.63;;;10.15;62.10
58658;BME280;44428;45.630;13.786;2022-11-20T10:05:40;100979.00;;;10.28;61.90
58658;BME280;44428;45.630;13.786;2022-11-20T10:10:42;100980.00;;;10.40;60.50
58658;BME280;44428;45.630;13.786;2022-11-20T10:13:32;100972.66;;;10.58;59.56
58658;BME280;44428;45.630;13.786;2022-11-20T10:24:42;100981.03;;;10.77;58.84
58658;BME280;44428;45.630;13.786;2022-11-20T10:30:12;100987.22;;;10.90;59.27
58658;BME280;44428;45.630;13.786;2022-11-20T10:33:06;100976.66;;;10.90;59.03
58658;BME280;44428;45.630;13.786;2022-11-20T10:38:24;100983.41;;;10.94;58.07
58658;BME280;44428;45.630;13.786;2022-11-20T10:40:54;100984.38;;;10.93;58.33
58658;BME280;44428;45.630;13.786;2022-11-20T10:43:46;100987.22;;;10.90;58.31
58658;BME280;44428;45.630;13.786;2022-11-20T10:46:19;100995.91;;;10.92;58.54
58658;BME280;44428;45.630;13.786;2022-11-20T10:48:48;100977.41;;;10.92;58.02
58658;BME280;44428;45.630;13.786;2022-11-20T10:56:40;100991.38;;;11.20;57.17
58658;BME280;44428;45.630;13.786;2022-11-20T11:01:58;100990.44;;;11.21;59.22
58658;BME280;44428;45.630;13.786;2022-11-20T11:04:37;101004.81;;;11.17;57.88
58658;BME280;44428;45.630;13.786;2022-11-20T11:07:30;100995.91;;;11.05;58.11
58658;BME280;44428;45.630;13.786;2022-11-20T11:09:59;100995.69;;;10.95;59.59
58658;BME280;44428;45.630;13.786;2022-11-20T11:12:27;100992.53;;;11.03;58.93
58658;BME280;44428;45.630;13.786;2022-11-20T11:14:55;100997.94;;;11.02;57.60
58658;BME280;44428;45.630;13.786;2022-11-20T11:17:31;100997.59;;;10.93;58.56
58658;BME280;44428;45.630;13.786;2022-11-20T11:22:24;100993.53;;;10.75;59.74
58658;BME280;44428;45.630;13.786;2022-11-20T11:24:51;100996.31;;;10.86;59.40
58658;BME280;44428;45.630;13.786;2022-11-20T11:27:17;100984.44;;;10.79;59.60
58658;BME280;44428;45.630;13.786;2022-11-20T11:29:44;100994.59;;;10.85;59.73
58658;BME280;44428;45.630;13.786;2022-11-20T11:32:20;100992.69;;;10.74;59.34
58658;BME280;44428;45.630;13.786;2022-11-20T11:35:05;100979.78;;;10.70;59.93
58658;BME280;44428;45.630;13.786;2022-11-20T11:37:37;100983.16;;;10.72;59.88
58658;BME280;44428;45.630;13.786;2022-11-20T11:40:05;100986.13;;;10.80;59.73
58658;BME280;44428;45.630;13.786;2022-11-20T11:42:32;100984.66;;;10.76;59.92
58658;BME280;44428;45.630;13.786;2022-11-20T11:44:59;100986.47;;;10.88;59.79
58658;BME280;44428;45.630;13.786;2022-11-20T11:47:32;100990.63;;;10.92;59.41
58658;BME280;44428;45.630;13.786;2022-11-20T11:53:16;100977.91;;;11.10;60.12
58658;BME280;44428;45.630;13.786;2022-11-20T11:55:47;100983.25;;;11.23;59.65
58658;BME280;44428;45.630;13.786;2022-11-20T11:58:29;100984.91;;;11.37;58.24
58658;BME280;44428;45.630;13.786;2022-11-20T12:01:02;100973.28;;;11.52;56.75
58658;BME280;44428;45.630;13.786;2022-11-20T12:03:38;100972.19;;;11.67;57.05
58658;BME280;44428;45.630;13.786;2022-11-20T12:06:14;100968.16;;;11.87;56.46
58658;BME280;44428;45.630;13.786;2022-11-20T12:08:57;100979.13;;;12.07;57.00
58658;BME280;44428;45.630;13.786;2022-11-20T12:14:19;100973.81;;;12.44;54.66
58658;BME280;44428;45.630;13.786;2022-11-20T12:16:50;100966.53;;;13.05;52.95
58658;BME280;44428;45.630;13.786;2022-11-20T12:19:18;100968.91;;;12.97;53.61
58658;BME280;44428;45.630;13.786;2022-11-20T12:22:02;100968.22;;;13.06;52.81
58658;BME280;44428;45.630;13.786;2022-11-20T12:24:42;100957.13;;;13.12;53.39
58658;BME280;44428;45.630;13.786;2022-11-20T12:30:15;100970.66;;;13.20;52.48
58658;BME280;44428;45.630;13.786;2022-11-20T12:39:02;100948.16;;;12.91;52.44
58658;BME280;44428;45.630;13.786;2022-11-20T12:50:42;100942.34;;;12.74;53.12
58658;BME280;44428;45.630;13.786;2022-11-20T12:58:54;100930.66;;;12.77;53.91
58658;BME280;44428;45.630;13.786;2022-11-20T13:01:40;100932.44;;;12.65;53.49
58658;BME280;44428;45.630;13.786;2022-11-20T13:07:14;100925.03;;;12.93;53.75
58658;BME280;44428;45.630;13.786;2022-11-20T13:09:46;100921.69;;;13.13;52.75
58658;BME280;44428;45.630;13.786;2022-11-20T13:12:24;100919.03;;;13.24;52.80
58658;BME280;44428;45.630;13.786;2022-11-20T13:17:37;100914.66;;;12.90;52.52
58658;BME280;44428;45.630;13.786;2022-11-20T13:20:15;100913.41;;;12.71;53.99
58658;BME280;44428;45.630;13.786;2022-11-20T13:22:50;100920.44;;;12.83;53.44
58658;BME280;44428;45.630;13.786;2022-11-20T13:25:28;100923.16;;;13.40;52.83
58658;BME280;44428;45.630;13.786;2022-11-20T13:27:55;100920.00;;;13.80;51.88
58658;BME280;44428;45.630;13.786;2022-11-20T13:30:23;100926.75;;;13.95;50.54
58658;BME280;44428;45.630;13.786;2022-11-20T13:35:33;100925.34;;;13.35;51.43
58658;BME280;44428;45.630;13.786;2022-11-20T13:38:10;100926.31;;;13.45;50.57
58658;BME280;44428;45.630;13.786;2022-11-20T13:40:50;100922.47;;;14.47;48.63
58658;BME280;44428;45.630;13.786;2022-11-20T13:43:40;100933.53;;;16.17;44.38
58658;BME280;44428;45.630;13.786;2022-11-20T13:46:12;100917.38;;;17.33;41.75
58658;BME280;44428;45.630;13.786;2022-11-20T13:48:42;100919.72;;;17.83;40.58
58658;BME280;44428;45.630;13.786;2022-11-20T13:51:31;100914.09;;;18.22;40.23
58658;BME280;44428;45.630;13.786;2022-11-20T13:59:58;100911.72;;;18.73;38.17
58658;BME280;44428;45.630;13.786;2022-11-20T14:02:27;100917.00;;;18.83;38.21
58658;BME280;44428;45.630;13.786;2022-11-20T14:04:59;100889.31;;;17.84;38.71
58658;BME280;44428;45.630;13.786;2022-11-20T14:07:32;100891.78;;;17.96;38.74
58658;BME280;44428;45.630;13.786;2022-11-20T14:10:01;100905.03;;;17.88;39.36
58658;BME280;44428;45.630;13.786;2022-11-20T14:12:32;100896.13;;;17.69;37.91
58658;BME280;44428;45.630;13.786;2022-11-20T14:14:58;100900.69;;;17.59;38.88
58658;BME280;44428;45.630;13.786;2022-11-20T14:17:32;100902.53;;;17.21;39.69
58658;BME280;44428;45.630;13.786;2022-11-20T14:20:07;100894.75;;;16.90;39.72
58658;BME280;44428;45.630;13.786;2022-11-20T14:22:33;100902.66;;;16.14;41.86
58658;BME280;44428;45.630;13.786;2022-11-20T14:27:41;100895.63;;;16.42;42.04
58658;BME280;44428;45.630;13.786;2022-11-20T14:30:15;100897.34;;;16.43;42.43